« Back
NWS Peachtree City, Ga » Text Product » CSG Terminal Aerodrome Forecast


Printer-friendly Version
Current Version              Previous Versions:   1  2  3  4  5  6  7  8  9  

Terminal Aerodrome Forecast

869
FTUS42 KFFC 240500
TAFCSG
TAF
KCSG 240522Z 2406/2506 00000KT P6SM SKC
     FM241500 11005KT P6SM SCT050
     FM241700 20005KT P6SM SCT060
     FM250300 20004KT P6SM BKN045=

USA.gov is the U.S. government's official web portal to all federal, state and local government web resources and services.